Time;durP1;ratioP1;P1;durP2;ratioP2;P2;SDS_P1;SDS_P2;PMS_P1;PMS_P2;Temp;Humidity;BMP_temperature;BMP_pressure;BME280_temperature;BME280_humidity;BME280_pressure;Samples;Min_cycle;Max_cycle;Signal;HPM_P1;HPM_P2
2022/10/19 00:01:35;;;;;;;;;1.67;1.67;;;;;24.13;50.11;102156.25;5077312;27;45581;-80
2022/10/19 00:04:02;;;;;;;;;2.33;2.33;;;;;24.09;49.78;102144.31;5076815;27;45757;-80
2022/10/19 00:06:30;;;;;;;;;1.00;1.00;;;;;24.14;50.00;102144.66;5077287;27;45350;-79
2022/10/19 00:08:57;;;;;;;;;2.00;2.00;;;;;24.13;49.97;102148.28;5076945;27;45433;-79
2022/10/19 00:11:23;;;;;;;;;1.00;1.00;;;;;24.07;49.63;102139.13;5076807;27;45411;-79
2022/10/19 00:13:49;;;;;;;;;1.00;1.00;;;;;24.03;49.68;102127.16;5077033;27;45283;-80
2022/10/19 00:16:16;;;;;;;;;3.00;1.00;;;;;24.13;50.26;102144.78;5076943;27;45345;-80
2022/10/19 00:18:42;;;;;;;;;1.00;1.00;;;;;24.06;49.81;102136.66;5076248;27;45412;-79
2022/10/19 00:21:09;;;;;;;;;4.00;3.00;;;;;24.02;49.93;102141.44;5076612;27;45334;-80
2022/10/19 00:23:35;;;;;;;;;2.00;2.00;;;;;23.98;50.06;102140.13;5076937;27;45486;-80
2022/10/19 00:26:01;;;;;;;;;1.00;1.00;;;;;24.13;49.88;102161.56;5076706;27;45311;-79
2022/10/19 00:28:27;;;;;;;;;2.00;2.00;;;;;24.14;49.84;102162.41;5076482;27;47436;-80
2022/10/19 00:30:52;;;;;;;;;2.00;1.67;;;;;24.14;49.93;102159.75;5076749;27;45295;-80
2022/10/19 00:33:20;;;;;;;;;1.00;1.00;;;;;24.13;49.66;102158.09;5062327;27;45402;-79
2022/10/19 00:35:48;;;;;;;;;2.67;2.67;;;;;24.13;50.10;102155.41;5062676;27;45430;-79
2022/10/19 00:38:15;;;;;;;;;2.00;2.00;;;;;24.12;49.67;102157.28;5076157;27;46906;-79
2022/10/19 00:40:40;;;;;;;;;3.00;2.00;;;;;24.12;50.03;102149.31;5076352;27;45442;-79
2022/10/19 00:43:17;;;;;;;;;1.00;1.00;;;;;24.13;49.92;102160.75;5076622;27;45376;-79
2022/10/19 00:45:42;;;;;;;;;1.00;1.00;;;;;24.08;49.95;102155.91;5076470;27;45275;-79
2022/10/19 00:48:11;;;;;;;;;1.33;1.33;;;;;24.12;49.61;102151.13;5075884;27;45988;-80
2022/10/19 00:50:38;;;;;;;;;2.00;2.00;;;;;24.12;50.04;102145.81;5076206;27;45399;-80
2022/10/19 00:53:03;;;;;;;;;3.33;1.67;;;;;24.12;49.91;102148.47;5076415;27;45405;-79
2022/10/19 00:55:29;;;;;;;;;1.00;1.00;;;;;24.10;50.00;102140.63;5075536;27;45475;-79
2022/10/19 00:57:54;;;;;;;;;1.33;1.33;;;;;24.12;49.96;102140.47;5076438;27;45426;-79
2022/10/19 01:00:20;;;;;;;;;2.00;2.00;;;;;24.08;49.88;102134.66;5076427;27;45506;-79
2022/10/19 01:02:46;;;;;;;;;2.67;2.00;;;;;24.11;49.91;102133.50;5075828;27;45312;-79
2022/10/19 01:05:13;;;;;;;;;1.00;1.00;;;;;24.04;49.91;102117.38;5076361;27;45390;-80
2022/10/19 01:07:38;;;;;;;;;3.33;3.00;;;;;24.11;49.95;102142.31;5076018;27;46409;-79
2022/10/19 01:10:04;;;;;;;;;2.00;1.00;;;;;24.12;49.89;102137.81;5076055;27;45300;-80
2022/10/19 01:13:04;;;;;;;;;2.00;1.33;;;;;24.10;49.72;102130.00;5076099;27;45399;-80
2022/10/19 01:15:33;;;;;;;;;1.00;1.00;;;;;24.11;50.16;102130.84;5075784;27;45388;-79
2022/10/19 01:18:25;;;;;;;;;1.67;1.67;;;;;24.11;49.91;102136.16;5075643;27;46297;-79
2022/10/19 01:21:03;;;;;;;;;2.00;2.00;;;;;24.07;49.78;102123.19;5075848;27;45411;-80
2022/10/19 01:24:05;;;;;;;;;2.67;1.67;;;;;24.11;49.54;102130.84;5075933;27;45359;-79
2022/10/19 01:27:04;;;;;;;;;4.00;1.33;;;;;24.04;49.66;102112.88;5075893;27;45389;-80
2022/10/19 01:29:51;;;;;;;;;1.00;1.00;;;;;24.09;49.79;102112.41;5075739;27;47172;-79
2022/10/19 01:32:37;;;;;;;;;1.33;1.33;;;;;24.10;49.95;102114.03;5103469;27;45397;-79
2022/10/19 01:35:12;;;;;;;;;1.00;1.00;;;;;24.09;49.70;102107.06;5069544;27;45421;-79
2022/10/19 01:37:49;;;;;;;;;3.00;2.33;;;;;24.01;49.94;102089.28;5075641;27;45411;-79
2022/10/19 01:40:27;;;;;;;;;2.00;2.00;;;;;24.08;50.03;102102.75;5075625;27;45617;-80
2022/10/19 01:43:03;;;;;;;;;1.00;1.00;;;;;24.09;49.92;102099.09;5075811;28;45322;-79
2022/10/19 01:45:38;;;;;;;;;2.67;2.67;;;;;24.09;49.73;102091.13;5075048;27;45372;-79
2022/10/19 01:48:16;;;;;;;;;1.00;1.00;;;;;24.09;50.10;102077.84;5075818;27;45290;-80
2022/10/19 01:50:58;;;;;;;;;2.00;1.33;;;;;24.10;49.90;102071.50;5075268;27;45335;-80
2022/10/19 01:53:29;;;;;;;;;1.67;1.67;;;;;24.09;49.72;102072.50;5075459;27;45354;-80
2022/10/19 01:55:56;;;;;;;;;1.00;1.00;;;;;24.10;50.02;102063.53;5075626;27;45376;-79
2022/10/19 01:58:27;;;;;;;;;1.00;1.00;;;;;24.08;50.08;102060.22;5075534;28;45367;-80
2022/10/19 02:00:57;;;;;;;;;2.00;2.00;;;;;24.08;50.18;102054.88;5074755;27;48253;-79
2022/10/19 02:03:24;;;;;;;;;1.00;1.00;;;;;24.07;50.00;102047.94;5075525;27;45323;-79
2022/10/19 02:05:51;;;;;;;;;1.00;1.00;;;;;24.03;49.76;102041.25;5076972;27;45352;-79
2022/10/19 02:08:24;;;;;;;;;1.00;1.00;;;;;24.05;49.95;102040.09;5079248;27;45442;-79
2022/10/19 02:10:52;;;;;;;;;2.00;2.00;;;;;24.02;49.91;102040.41;5078416;27;45500;-79
2022/10/19 02:13:20;;;;;;;;;1.00;1.00;;;;;24.07;49.66;102047.94;5078315;27;45522;-79
2022/10/19 02:15:50;;;;;;;;;1.00;1.00;;;;;24.06;49.87;102057.72;5079180;27;45454;-79
2022/10/19 02:18:22;;;;;;;;;1.00;1.00;;;;;24.07;49.88;102046.06;5078947;27;45329;-79
2022/10/19 02:20:47;;;;;;;;;1.33;1.33;;;;;24.06;49.70;102041.78;5078513;27;45337;-79
2022/10/19 02:23:16;;;;;;;;;1.00;1.00;;;;;24.07;49.85;102039.94;5078492;27;45360;-79
2022/10/19 02:25:41;;;;;;;;;1.33;1.33;;;;;24.06;49.83;102043.59;5079054;28;45428;-79
2022/10/19 02:28:07;;;;;;;;;1.00;1.00;;;;;24.00;49.92;102015.00;5078071;27;45536;-80
2022/10/19 02:30:32;;;;;;;;;1.33;1.33;;;;;24.07;49.87;102024.00;5078590;27;45544;-80
2022/10/19 02:32:58;;;;;;;;;2.00;1.00;;;;;24.05;50.18;102025.97;5067459;27;45342;-79
2022/10/19 02:35:23;;;;;;;;;1.00;1.00;;;;;24.06;49.48;102030.31;5075349;27;45567;-80
2022/10/19 02:37:49;;;;;;;;;2.00;2.00;;;;;24.06;49.86;102023.16;5078514;27;45360;-79
2022/10/19 02:40:14;;;;;;;;;3.00;3.00;;;;;24.06;49.86;102009.88;5078404;27;45416;-79
2022/10/19 02:42:49;;;;;;;;;1.67;1.67;;;;;23.95;49.83;101986.25;5078105;27;45429;-79
2022/10/19 02:45:35;;;;;;;;;1.00;1.00;;;;;24.06;49.55;101999.25;5078304;27;45394;-79
2022/10/19 02:48:08;;;;;;;;;1.67;1.67;;;;;24.06;50.09;101993.91;5078256;27;45582;-79
2022/10/19 02:50:34;;;;;;;;;2.00;2.00;;;;;24.07;49.74;101981.47;5092166;27;46002;-79
2022/10/19 02:52:59;;;;;;;;;1.00;1.00;;;;;24.06;49.53;101993.09;5078247;27;45412;-79
2022/10/19 02:55:25;;;;;;;;;2.00;2.00;;;;;24.06;49.86;101985.94;5078476;27;45387;-79
2022/10/19 02:57:50;;;;;;;;;2.33;2.33;;;;;23.95;50.11;101954.38;5077950;27;45496;-79
2022/10/19 03:00:16;;;;;;;;;2.00;2.00;;;;;24.07;49.67;101976.94;5078308;27;45417;-79
2022/10/19 03:02:41;;;;;;;;;2.00;1.00;;;;;24.05;49.52;101970.16;5077805;27;45387;-79
2022/10/19 03:05:08;;;;;;;;;1.67;1.67;;;;;24.06;49.73;101975.31;5078460;27;45319;-79
2022/10/19 03:07:34;;;;;;;;;3.00;1.00;;;;;24.05;49.98;101965.66;5077991;27;45293;-79
2022/10/19 03:09:59;;;;;;;;;1.33;1.33;;;;;24.03;50.14;101972.97;5077769;27;45291;-79
2022/10/19 03:12:25;;;;;;;;;1.67;1.00;;;;;24.07;49.72;101971.63;5078033;27;45385;-79
2022/10/19 03:14:50;;;;;;;;;2.00;2.00;;;;;24.07;49.41;101968.16;5077898;27;45413;-78
2022/10/19 03:17:15;;;;;;;;;2.00;2.00;;;;;24.01;49.45;101955.53;5077268;27;45575;-79
2022/10/19 03:19:41;;;;;;;;;1.33;1.33;;;;;24.01;49.66;101952.88;5077769;27;45317;-79
2022/10/19 03:22:06;;;;;;;;;2.67;2.67;;;;;24.05;49.70;101960.34;5077875;27;45530;-79
2022/10/19 03:24:31;;;;;;;;;2.67;2.67;;;;;24.05;49.86;101954.19;5077945;27;45319;-79
2022/10/19 03:26:57;;;;;;;;;1.00;1.00;;;;;24.05;49.78;101960.34;5077848;27;45414;-79
2022/10/19 03:29:22;;;;;;;;;2.00;2.00;;;;;24.03;49.55;101940.25;5077591;27;49394;-79
2022/10/19 03:31:49;;;;;;;;;2.00;2.00;;;;;24.07;49.99;101958.34;5075979;27;45312;-79
2022/10/19 03:34:14;;;;;;;;;2.00;2.00;;;;;24.07;49.88;101957.53;5065152;27;45295;-79
2022/10/19 03:36:39;;;;;;;;;3.00;2.00;;;;;24.05;49.55;101949.72;5077220;27;45455;-79
2022/10/19 03:39:09;;;;;;;;;2.00;2.00;;;;;24.05;49.49;101939.06;5077593;27;47252;-79
2022/10/19 03:41:36;;;;;;;;;3.00;3.00;;;;;24.05;49.46;101943.56;5077151;27;45302;-79
2022/10/19 03:44:02;;;;;;;;;3.00;2.00;;;;;24.05;49.98;101944.41;5077391;27;45399;-79
2022/10/19 03:46:27;;;;;;;;;1.00;1.00;;;;;23.94;49.51;101940.25;5077384;27;45516;-79
2022/10/19 03:48:53;;;;;;;;;2.00;2.00;;;;;23.95;49.54;101939.25;5077221;27;46303;-79
2022/10/19 03:51:22;;;;;;;;;2.33;1.67;;;;;24.05;49.95;101952.38;5077399;27;45411;-79
2022/10/19 03:53:51;;;;;;;;;2.00;2.00;;;;;24.05;49.65;101932.94;5077407;27;45334;-79
2022/10/19 03:56:19;;;;;;;;;1.00;1.00;;;;;24.04;49.67;101934.78;5076991;27;45369;-79
2022/10/19 03:58:47;;;;;;;;;3.00;3.00;;;;;24.03;49.65;101925.13;5077077;27;46386;-79
2022/10/19 04:01:19;;;;;;;;;2.00;2.00;;;;;24.04;49.75;101918.81;5076972;27;45289;-79
2022/10/19 04:03:44;;;;;;;;;2.00;2.00;;;;;24.04;50.10;101916.16;5077423;27;45410;-80
2022/10/19 04:06:16;;;;;;;;;1.67;1.67;;;;;24.02;49.83;101912.03;5077061;27;45426;-79
2022/10/19 04:08:43;;;;;;;;;2.67;2.67;;;;;24.04;49.61;101910.00;5077086;27;46621;-79
2022/10/19 04:11:12;;;;;;;;;2.00;2.00;;;;;24.04;50.02;101921.47;5076592;28;45310;-79
2022/10/19 04:13:38;;;;;;;;;3.33;2.67;;;;;24.04;49.99;101910.84;5077220;27;45217;-79
2022/10/19 04:16:04;;;;;;;;;3.00;3.00;;;;;24.03;49.75;101909.19;5077133;27;45277;-79
2022/10/19 04:18:29;;;;;;;;;2.00;2.00;;;;;24.04;49.15;101907.34;5076847;27;46403;-79
2022/10/19 04:20:56;;;;;;;;;2.00;2.00;;;;;23.99;49.61;101891.09;5076750;27;45244;-79
2022/10/19 04:23:22;;;;;;;;;1.67;1.67;;;;;24.05;49.72;101885.91;5076775;27;45742;-80
2022/10/19 04:25:47;;;;;;;;;2.00;2.00;;;;;24.04;49.74;101868.31;5076645;27;45383;-79
2022/10/19 04:28:12;;;;;;;;;2.00;2.00;;;;;24.05;49.74;101863.81;5076913;27;45416;-79
2022/10/19 04:30:38;;;;;;;;;2.00;2.00;;;;;24.05;49.78;101864.66;5074860;27;57907;-79
2022/10/19 04:33:03;;;;;;;;;3.00;1.00;;;;;24.04;49.83;101863.00;5065205;27;45442;-79
2022/10/19 04:35:28;;;;;;;;;2.67;2.67;;;;;24.05;49.89;101867.31;5074210;28;45397;-79
2022/10/19 04:37:54;;;;;;;;;1.33;1.33;;;;;24.05;49.96;101874.44;5076229;27;50047;-79
2022/10/19 04:40:19;;;;;;;;;2.00;2.00;;;;;24.01;49.71;101873.97;5076298;27;45529;-79
2022/10/19 04:42:44;;;;;;;;;1.00;1.00;;;;;24.00;49.90;101869.63;5076632;27;45477;-79
2022/10/19 04:45:10;;;;;;;;;3.00;2.00;;;;;24.04;49.73;101878.13;5076706;27;45390;-79
2022/10/19 04:47:35;;;;;;;;;2.67;2.67;;;;;24.04;49.70;101878.13;5076233;27;47409;-79
2022/10/19 04:50:00;;;;;;;;;1.33;1.33;;;;;24.04;49.90;101870.97;5076247;27;45443;-79
2022/10/19 04:52:26;;;;;;;;;2.00;2.00;;;;;24.05;50.07;101874.44;5076571;27;45343;-79
2022/10/19 04:54:51;;;;;;;;;3.00;2.00;;;;;24.04;49.84;101868.31;5076416;27;45398;-79
2022/10/19 04:57:16;;;;;;;;;1.00;1.00;;;;;24.03;49.77;101871.97;5076140;28;45437;-79
2022/10/19 04:59:42;;;;;;;;;0.00;0.00;;;;;24.03;50.00;101877.28;5076533;27;45425;-78
2022/10/19 05:02:07;;;;;;;;;2.00;2.00;;;;;24.04;49.74;101880.78;5076433;27;45381;-78
2022/10/19 05:04:32;;;;;;;;;1.67;1.67;;;;;24.03;49.63;101873.78;5076076;27;45445;-76
2022/10/19 05:06:58;;;;;;;;;1.00;1.00;;;;;24.01;49.70;101863.34;5076327;27;45353;-75
2022/10/19 05:09:23;;;;;;;;;3.00;1.00;;;;;23.99;49.89;101864.50;5075434;27;47975;-77
2022/10/19 05:11:49;;;;;;;;;1.00;1.00;;;;;24.00;49.84;101866.97;5075997;27;45370;-74
2022/10/19 05:14:14;;;;;;;;;2.33;2.33;;;;;24.04;50.05;101868.31;5091543;27;45469;-73
2022/10/19 05:16:40;;;;;;;;;4.00;2.67;;;;;24.05;49.96;101863.81;5075409;27;46099;-74
2022/10/19 05:19:05;;;;;;;;;1.67;1.67;;;;;24.05;49.88;101864.66;5075994;27;45415;-75
2022/10/19 05:21:31;;;;;;;;;2.00;2.00;;;;;23.97;49.83;101862.00;5075672;27;45547;-75
2022/10/19 05:23:56;;;;;;;;;2.00;2.00;;;;;24.06;49.78;101873.44;5075550;27;45406;-76
2022/10/19 05:26:24;;;;;;;;;2.33;2.00;;;;;23.95;49.72;101851.53;5075742;27;46407;-76
2022/10/19 05:28:56;;;;;;;;;2.67;1.00;;;;;24.06;50.20;101868.13;5075676;27;45356;-73
2022/10/19 05:31:24;;;;;;;;;2.00;2.00;;;;;24.07;49.88;101862.63;5075584;27;45395;-76
2022/10/19 05:33:49;;;;;;;;;1.67;1.67;;;;;24.09;49.76;101866.97;5061528;27;45566;-78
2022/10/19 05:36:26;;;;;;;;;1.67;1.00;;;;;24.11;49.62;101859.66;5075126;27;47430;-76
2022/10/19 05:38:55;;;;;;;;;2.67;2.67;;;;;24.12;50.09;101853.34;5075632;27;45344;-76
2022/10/19 05:41:22;;;;;;;;;2.33;2.00;;;;;24.11;50.17;101849.84;5075140;27;45298;-76
2022/10/19 05:43:52;;;;;;;;;3.00;2.67;;;;;24.11;50.00;101849.00;5075445;27;45331;-76
2022/10/19 05:46:18;;;;;;;;;1.00;1.00;;;;;24.13;49.96;101847.00;5075494;27;45430;-76
2022/10/19 05:48:45;;;;;;;;;2.00;2.00;;;;;24.11;49.99;101841.88;5075419;27;45379;-76
2022/10/19 05:51:13;;;;;;;;;3.33;2.00;;;;;24.11;49.88;101844.53;5075314;27;45371;-76
2022/10/19 05:53:38;;;;;;;;;1.00;1.00;;;;;24.11;49.87;101843.69;5074195;27;45359;-75
2022/10/19 05:56:05;;;;;;;;;2.00;2.00;;;;;24.11;49.63;101846.34;5075157;27;46056;-76
2022/10/19 05:58:31;;;;;;;;;1.00;0.00;;;;;24.10;49.91;101848.19;5075458;27;45352;-76
2022/10/19 06:00:58;;;;;;;;;3.00;3.00;;;;;24.09;49.85;101843.88;5075442;27;45292;-75
2022/10/19 06:03:24;;;;;;;;;1.00;1.00;;;;;24.10;49.92;101837.53;5075440;27;45394;-77
2022/10/19 06:05:51;;;;;;;;;2.00;2.00;;;;;24.09;50.23;101832.41;5074882;27;46207;-76
2022/10/19 06:08:18;;;;;;;;;1.67;1.67;;;;;24.08;50.30;101831.56;5075360;27;45421;-75
2022/10/19 06:10:44;;;;;;;;;1.67;1.67;;;;;24.07;49.85;101833.41;5075401;27;45854;-76
2022/10/19 06:13:11;;;;;;;;;1.33;1.33;;;;;24.07;49.78;101829.94;5075059;27;45502;-76
2022/10/19 06:15:38;;;;;;;;;1.00;1.00;;;;;24.07;50.26;101836.06;5075031;27;47417;-75
2022/10/19 06:18:07;;;;;;;;;2.33;2.00;;;;;24.01;50.04;101819.97;5074915;27;45345;-75
2022/10/19 06:20:34;;;;;;;;;1.00;1.00;;;;;24.04;50.03;101825.78;5074717;27;45260;-76
2022/10/19 06:23:00;;;;;;;;;1.00;1.00;;;;;24.06;49.72;101815.81;5074924;27;45447;-75
2022/10/19 06:25:25;;;;;;;;;2.00;1.00;;;;;24.06;49.74;101825.59;5074980;27;45358;-76
2022/10/19 06:27:50;;;;;;;;;3.00;2.00;;;;;24.06;50.05;101822.94;5075055;27;45429;-76
2022/10/19 06:30:16;;;;;;;;;3.00;1.67;;;;;24.05;50.04;101815.97;5075234;27;45245;-76
2022/10/19 06:32:41;;;;;;;;;2.00;2.00;;;;;24.05;49.79;101816.78;5066222;27;45365;-76
2022/10/19 06:35:07;;;;;;;;;2.00;2.00;;;;;24.06;49.86;101813.16;5068965;28;46501;-76
2022/10/19 06:37:32;;;;;;;;;2.00;2.00;;;;;24.05;49.74;101806.16;5074589;27;45264;-76
2022/10/19 06:39:57;;;;;;;;;3.00;3.00;;;;;24.05;49.75;101815.97;5074579;27;49124;-74
2022/10/19 06:42:22;;;;;;;;;2.33;1.00;;;;;24.05;50.13;101810.63;5074646;28;47888;-75
2022/10/19 06:44:48;;;;;;;;;2.00;2.00;;;;;24.02;49.77;101809.16;5074755;27;45225;-75
2022/10/19 06:47:13;;;;;;;;;2.67;1.00;;;;;24.05;49.82;101807.97;5074600;27;45668;-75
2022/10/19 06:49:38;;;;;;;;;2.00;2.00;;;;;23.98;49.79;101794.56;5074619;27;45403;-75
2022/10/19 06:52:06;;;;;;;;;2.00;2.00;;;;;24.06;49.82;101804.34;5075011;27;45476;-75
2022/10/19 06:54:31;;;;;;;;;2.33;2.00;;;;;24.06;49.80;101812.31;5077855;27;46264;-75
2022/10/19 06:56:57;;;;;;;;;2.00;2.00;;;;;24.06;50.19;101809.66;5078242;27;45405;-72
2022/10/19 06:59:22;;;;;;;;;3.33;1.67;;;;;24.06;49.89;101813.16;5078149;27;45479;-74
2022/10/19 07:01:47;;;;;;;;;3.00;1.00;;;;;24.05;50.03;101816.78;5077925;27;45316;-74
2022/10/19 07:04:13;;;;;;;;;3.00;1.33;;;;;24.06;49.93;101817.63;5075152;27;46773;-75
2022/10/19 07:06:38;;;;;;;;;3.33;2.00;;;;;24.08;49.78;101815.63;5077317;27;45303;-75
2022/10/19 07:09:03;;;;;;;;;1.00;1.00;;;;;24.04;50.01;101798.38;5077364;27;45380;-75
2022/10/19 07:11:29;;;;;;;;;2.00;2.00;;;;;24.11;49.94;101809.13;5066469;27;45485;-74
2022/10/19 07:13:54;;;;;;;;;1.33;1.33;;;;;24.10;50.02;101802.97;5077100;27;51744;-74
2022/10/19 07:16:20;;;;;;;;;1.00;1.00;;;;;24.12;50.05;101802.81;5077882;27;45380;-75
2022/10/19 07:18:46;;;;;;;;;2.00;2.00;;;;;24.14;50.07;101800.81;5077153;27;45423;-75
2022/10/19 07:21:13;;;;;;;;;2.00;2.00;;;;;24.14;49.73;101809.63;5077653;27;45310;-75
2022/10/19 07:23:40;;;;;;;;;2.00;2.00;;;;;24.14;49.91;101799.00;5077269;27;46430;-74
2022/10/19 07:26:16;;;;;;;;;1.00;1.00;;;;;24.02;49.60;101774.59;5077365;27;45544;-75
2022/10/19 07:28:44;;;;;;;;;1.33;1.33;;;;;24.16;49.82;101790.84;5077764;27;45560;-75
2022/10/19 07:31:13;;;;;;;;;2.33;2.33;;;;;24.15;49.65;101797.97;5077054;27;45461;-74
2022/10/19 07:33:38;;;;;;;;;1.00;1.00;;;;;24.15;49.71;101800.63;5058878;27;46293;-75
2022/10/19 07:36:06;;;;;;;;;2.33;2.33;;;;;24.10;49.95;101797.66;5076925;27;45319;-75
2022/10/19 07:38:33;;;;;;;;;2.00;2.00;;;;;24.16;49.79;101797.00;5077520;27;45371;-74
2022/10/19 07:41:04;;;;;;;;;2.00;2.00;;;;;24.17;49.79;101805.81;5077480;27;45363;-75
2022/10/19 07:43:30;;;;;;;;;2.00;2.00;;;;;24.16;49.91;101797.00;5063202;27;46277;-74
2022/10/19 07:46:01;;;;;;;;;2.67;2.67;;;;;24.17;49.79;101800.47;5109525;27;45317;-74
2022/10/19 07:48:26;;;;;;;;;2.33;2.33;;;;;24.16;49.80;101796.16;5077169;27;45362;-75
2022/10/19 07:50:52;;;;;;;;;2.67;2.67;;;;;24.16;49.75;101796.16;5076889;27;45573;-74
2022/10/19 07:53:17;;;;;;;;;3.00;3.00;;;;;24.17;50.07;101801.28;5076755;27;49682;-75
2022/10/19 07:55:42;;;;;;;;;1.00;1.00;;;;;24.16;49.71;101796.16;5077155;27;45345;-75
2022/10/19 07:58:07;;;;;;;;;2.00;2.00;;;;;24.16;49.71;101789.00;5077291;27;45325;-74
2022/10/19 08:00:33;;;;;;;;;2.00;2.00;;;;;24.16;49.51;101782.88;5077099;27;45276;-75
2022/10/19 08:02:58;;;;;;;;;2.67;2.67;;;;;24.16;49.68;101797.00;5076284;27;46317;-75
2022/10/19 08:05:23;;;;;;;;;1.00;1.00;;;;;24.17;49.89;101797.81;5077021;27;45406;-75
2022/10/19 08:07:49;;;;;;;;;3.00;2.00;;;;;24.12;49.78;101792.19;5076810;27;45366;-75
2022/10/19 08:10:14;;;;;;;;;1.00;1.00;;;;;24.17;49.63;101792.50;5077092;27;45569;-75
2022/10/19 08:12:39;;;;;;;;;2.00;2.00;;;;;24.18;50.21;101787.00;5076806;27;45386;-74
2022/10/19 08:15:06;;;;;;;;;2.00;2.00;;;;;24.19;49.79;101787.84;5077056;27;45378;-74
2022/10/19 08:17:35;;;;;;;;;3.00;2.00;;;;;24.21;49.85;101785.00;5076559;27;45429;-74
2022/10/19 08:20:00;;;;;;;;;3.00;2.00;;;;;24.22;49.76;101784.84;5076701;27;45351;-74
2022/10/19 08:22:25;;;;;;;;;2.00;2.00;;;;;24.24;49.76;101782.00;5076738;27;45942;-74
2022/10/19 08:24:51;;;;;;;;;1.00;1.00;;;;;24.24;49.90;101777.53;5076242;27;47686;-74
2022/10/19 08:27:16;;;;;;;;;5.33;2.67;;;;;24.26;49.68;101772.88;5076650;27;45307;-74
2022/10/19 08:29:41;;;;;;;;;1.00;1.00;;;;;24.28;50.01;101770.88;5076789;27;45350;-75
2022/10/19 08:32:07;;;;;;;;;2.33;2.00;;;;;24.35;49.75;101775.50;5070850;28;46157;-75
2022/10/19 08:34:32;;;;;;;;;3.33;2.00;;;;;24.40;49.84;101776.66;5066376;27;45244;-75
2022/10/19 08:37:00;;;;;;;;;2.00;2.00;;;;;24.45;49.69;101778.78;5076410;27;45235;-75
2022/10/19 08:39:25;;;;;;;;;2.00;2.00;;;;;24.49;49.65;101764.13;5076335;27;45274;-75
2022/10/19 08:42:04;;;;;;;;;2.33;2.33;;;;;24.55;49.50;101764.44;5076190;27;45326;-74
2022/10/19 08:44:38;;;;;;;;;1.67;1.67;;;;;24.58;49.35;101780.88;5076614;27;45410;-75
2022/10/19 08:47:15;;;;;;;;;5.00;3.67;;;;;24.61;49.24;101769.91;5076040;27;45420;-74
2022/10/19 08:49:40;;;;;;;;;2.67;1.33;;;;;24.60;49.13;101746.94;5076425;27;45518;-74
2022/10/19 08:52:24;;;;;;;;;1.67;1.67;;;;;24.56;49.41;101750.13;5075666;27;46251;-74
2022/10/19 08:54:55;;;;;;;;;1.67;1.67;;;;;24.71;49.03;101747.53;5076209;27;45353;-74
2022/10/19 08:57:31;;;;;;;;;3.67;3.67;;;;;24.73;49.25;101754.34;5076070;27;45359;-74
2022/10/19 09:00:05;;;;;;;;;3.00;3.00;;;;;24.76;49.18;101750.50;5075868;27;45363;-75
2022/10/19 09:02:42;;;;;;;;;2.00;2.00;;;;;24.78;49.06;101769.78;5075580;27;46260;-75
2022/10/19 09:05:30;;;;;;;;;1.00;1.00;;;;;24.79;49.08;101758.13;5076102;27;45339;-75
2022/10/19 09:07:56;;;;;;;;;3.00;3.00;;;;;24.79;49.01;101766.13;5072146;28;45472;-75
2022/10/19 09:10:27;;;;;;;;;2.00;2.00;;;;;24.82;49.00;101749.81;5073537;28;45311;-74
2022/10/19 09:13:24;;;;;;;;;3.00;2.00;;;;;24.83;49.01;101740.78;5072822;28;45528;-75
2022/10/19 09:15:51;;;;;;;;;3.67;3.00;;;;;24.85;48.83;101764.59;5062075;28;45361;-75
2022/10/19 09:18:26;;;;;;;;;3.33;2.00;;;;;24.85;48.66;101748.63;5073456;27;45359;-75
2022/10/19 09:21:15;;;;;;;;;6.67;3.33;;;;;24.83;49.19;101747.94;5073581;27;45419;-75
2022/10/19 09:24:01;;;;;;;;;3.00;3.00;;;;;24.85;48.71;101738.78;5072883;27;46705;-74
2022/10/19 09:26:31;;;;;;;;;1.67;1.67;;;;;24.86;48.77;101731.63;5073426;27;45396;-75
2022/10/19 09:29:05;;;;;;;;;3.00;3.00;;;;;24.79;48.91;101712.91;5073270;28;45364;-74
2022/10/19 09:31:33;;;;;;;;;2.00;2.00;;;;;24.87;48.87;101719.16;5072786;27;45920;-74
2022/10/19 09:34:04;;;;;;;;;2.00;2.00;;;;;24.89;48.81;101725.97;5072890;27;46383;-74
2022/10/19 09:36:40;;;;;;;;;2.67;2.67;;;;;24.89;49.01;101719.81;5072833;27;45363;-75
2022/10/19 09:39:05;;;;;;;;;3.00;3.00;;;;;24.79;48.83;101699.59;5073254;27;45375;-75
2022/10/19 09:41:31;;;;;;;;;2.67;2.67;;;;;24.84;48.77;101707.88;5072859;27;45507;-73
2022/10/19 09:43:58;;;;;;;;;2.67;2.67;;;;;24.91;48.88;101741.72;5070943;27;47310;-75
2022/10/19 09:46:53;;;;;;;;;2.67;2.67;;;;;24.91;49.02;101729.25;5064876;28;45375;-75
2022/10/19 09:49:47;;;;;;;;;3.00;3.00;;;;;24.91;48.80;101723.94;5075213;27;45429;-75
2022/10/19 09:52:35;;;;;;;;;3.33;3.00;;;;;24.90;49.00;101701.00;5075313;27;45331;-74
2022/10/19 09:55:12;;;;;;;;;3.00;3.00;;;;;24.89;48.88;101704.66;5075483;27;46175;-75
2022/10/19 09:57:47;;;;;;;;;3.33;3.00;;;;;24.87;48.85;101716.50;5074969;27;46829;-74
2022/10/19 10:00:18;;;;;;;;;2.67;2.67;;;;;24.87;49.02;101700.53;5075483;27;45420;-75
2022/10/19 10:02:49;;;;;;;;;2.67;2.00;;;;;24.78;49.16;101683.78;5075058;27;45426;-74
2022/10/19 10:05:14;;;;;;;;;4.00;2.33;;;;;24.73;48.69;101674.50;5075057;28;46204;-74
2022/10/19 10:07:40;;;;;;;;;2.00;2.00;;;;;24.82;48.92;101696.56;5075109;27;45453;-75
2022/10/19 10:10:28;;;;;;;;;3.67;3.00;;;;;24.82;48.98;101693.09;5075123;27;45742;-75
2022/10/19 10:12:54;;;;;;;;;3.67;3.67;;;;;24.80;48.99;101684.47;5074541;27;45446;-75
2022/10/19 10:15:25;;;;;;;;;3.00;3.00;;;;;24.78;48.77;101684.63;5075081;27;46313;-74
2022/10/19 10:17:51;;;;;;;;;2.33;2.33;;;;;24.77;48.84;101677.66;5074958;27;45388;-75
2022/10/19 10:20:31;;;;;;;;;2.67;2.67;;;;;24.78;49.14;101686.44;5075073;27;45311;-74
2022/10/19 10:23:04;;;;;;;;;2.00;2.00;;;;;24.77;49.12;101677.66;5075128;27;45303;-74
2022/10/19 10:25:32;;;;;;;;;3.00;3.00;;;;;24.77;49.14;101682.97;5074783;27;46364;-74
2022/10/19 10:28:15;;;;;;;;;3.00;3.00;;;;;24.78;48.92;101689.94;5110711;27;45591;-74
2022/10/19 10:30:44;;;;;;;;;3.00;3.00;;;;;24.76;48.99;101701.75;5078441;27;45347;-75
2022/10/19 10:33:15;;;;;;;;;4.00;3.00;;;;;24.78;48.99;101678.47;5065699;27;45406;-75
2022/10/19 10:35:47;;;;;;;;;3.00;3.00;;;;;24.76;49.13;101678.66;5077094;27;46392;-74
2022/10/19 10:38:17;;;;;;;;;2.33;2.33;;;;;24.76;48.94;101676.00;5077960;27;45615;-75
2022/10/19 10:41:14;;;;;;;;;3.00;2.00;;;;;24.76;49.21;101665.34;5077613;27;46697;-75
2022/10/19 10:43:58;;;;;;;;;2.00;2.00;;;;;24.73;49.00;101655.88;5078007;27;45562;-75
2022/10/19 10:46:33;;;;;;;;;6.33;4.00;;;;;24.74;49.15;101640.75;5078260;27;45459;-75
2022/10/19 10:49:13;;;;;;;;;5.33;3.00;;;;;24.67;49.06;101651.25;5078287;27;45486;-75
2022/10/19 10:51:44;;;;;;;;;4.67;3.00;;;;;24.62;48.91;101627.88;5078329;27;45180;-74
2022/10/19 10:54:38;;;;;;;;;5.00;3.00;;;;;24.72;48.85;101632.13;5078104;27;45390;-75
2022/10/19 10:57:12;;;;;;;;;3.00;3.00;;;;;24.61;49.11;101612.09;5077954;27;46158;-74
2022/10/19 10:59:46;;;;;;;;;4.00;2.67;;;;;24.71;49.09;101652.59;5078016;27;45430;-75
2022/10/19 11:02:11;;;;;;;;;3.33;3.33;;;;;24.70;48.89;101653.56;5078114;27;45325;-75
2022/10/19 11:04:43;;;;;;;;;3.33;3.33;;;;;24.62;49.26;101630.53;5072113;27;45604;-74
2022/10/19 11:07:24;;;;;;;;;4.00;4.00;;;;;24.71;49.13;101657.06;5070010;28;46286;-75
2022/10/19 11:09:54;;;;;;;;;4.33;4.33;;;;;24.70;49.07;101620.81;5077538;27;45398;-75
2022/10/19 11:12:36;;;;;;;;;4.00;4.00;;;;;24.69;49.00;101603.22;5078194;27;45362;-74
2022/10/19 11:15:21;;;;;;;;;3.00;3.00;;;;;24.59;48.79;101596.28;5063699;28;45511;-75
2022/10/19 11:18:13;;;;;;;;;2.67;1.67;;;;;24.69;48.98;101603.22;5077219;27;47428;-74
2022/10/19 11:20:47;;;;;;;;;5.67;4.00;;;;;24.69;49.28;101601.38;5077430;27;45517;-74
2022/10/19 11:23:43;;;;;;;;;4.67;4.67;;;;;24.69;49.18;101582.75;5077441;27;45370;-75
2022/10/19 11:26:23;;;;;;;;;4.67;3.33;;;;;24.70;49.06;101587.06;5074690;27;45818;-74
2022/10/19 11:29:05;;;;;;;;;4.00;3.00;;;;;24.67;49.65;101578.63;5075053;27;46473;-75
2022/10/19 11:31:31;;;;;;;;;4.00;3.00;;;;;24.69;49.37;101582.75;5075237;27;45339;-75
2022/10/19 11:34:19;;;;;;;;;3.00;3.00;;;;;24.69;49.12;101576.59;5075141;27;45445;-74
2022/10/19 11:37:04;;;;;;;;;3.00;3.00;;;;;24.69;49.07;101589.91;5074574;27;45308;-75